Time;durP1;ratioP1;P1;durP2;ratioP2;P2;SDS_P1;SDS_P2;PMS_P1;PMS_P2;Temp;Humidity;BMP_temperature;BMP_pressure;BME280_temperature;BME280_humidity;BME280_pressure;Samples;Min_cycle;Max_cycle;Signal;HPM_P1;HPM_P2
2023/04/10 00:00:48;;;;;;;;;;;;;;;7.47;85.84;100643.75;5067612;28;19940;-57
2023/04/10 00:03:13;;;;;;;;;;;;;;;7.41;86.43;100638.53;5068838;28;20082;-57
2023/04/10 00:05:39;;;;;;;;;;;;;;;7.44;86.53;100647.31;5063917;28;20034;-57
2023/04/10 00:08:04;;;;;;;;;;;;;;;7.40;86.19;100650.00;5071961;28;20002;-57
2023/04/10 00:10:30;;;;;;;;;;;;;;;7.39;86.89;100654.44;5064759;28;20482;-57
2023/04/10 00:12:56;;;;;;;;;;;;;;;7.36;86.64;100646.53;5072118;28;19934;-57
2023/04/10 00:15:21;;;;;;;;;;;;;;;7.31;86.56;100647.44;5065119;28;19961;-57
2023/04/10 00:17:49;;;;;;;;;;;;;;;7.25;87.37;100645.72;5064868;28;20312;-58
2023/04/10 00:20:14;;;;;;;;;;;;;;;7.22;87.95;100644.88;5072129;28;19928;-58
2023/04/10 00:22:40;;;;;;;;;;;;;;;7.18;88.23;100648.44;5072096;28;20298;-58
2023/04/10 00:25:06;;;;;;;;;;;;;;;7.10;87.86;100629.97;5060503;28;20029;-58
2023/04/10 00:27:31;;;;;;;;;;;;;;;7.09;88.78;100628.25;5062176;28;20019;-58
2023/04/10 00:29:56;;;;;;;;;;;;;;;7.07;88.36;100640.59;5072001;28;20308;-58
2023/04/10 00:32:21;;;;;;;;;;;;;;;7.06;89.23;100633.56;5071385;28;19988;-58
2023/04/10 00:34:47;;;;;;;;;;;;;;;7.02;89.31;100637.13;5056457;28;19942;-58
2023/04/10 00:37:12;;;;;;;;;;;;;;;7.01;88.70;100635.38;5062823;28;20024;-58
2023/04/10 00:39:37;;;;;;;;;;;;;;;6.91;89.52;100636.34;5059372;28;19941;-58
2023/04/10 00:42:03;;;;;;;;;;;;;;;6.90;89.74;100641.63;5064283;28;20621;-58
2023/04/10 00:44:28;;;;;;;;;;;;;;;6.84;89.72;100631.97;5067957;28;19941;-58
2023/04/10 00:46:53;;;;;;;;;;;;;;;6.81;90.00;100637.28;5069109;28;19933;-58
2023/04/10 00:49:19;;;;;;;;;;;;;;;6.75;90.18;100631.16;5070815;28;20112;-58
2023/04/10 00:51:44;;;;;;;;;;;;;;;6.73;90.46;100639.13;5059609;28;20361;-58
2023/04/10 00:54:10;;;;;;;;;;;;;;;6.72;90.32;100637.38;5051874;28;19928;-58
2023/04/10 00:56:35;;;;;;;;;;;;;;;6.69;90.36;100640.91;5053166;28;20009;-57
2023/04/10 00:59:01;;;;;;;;;;;;;;;6.64;91.15;100641.81;5054884;28;20268;-58
2023/04/10 01:01:27;;;;;;;;;;;;;;;6.61;91.24;100644.47;5054163;28;19940;-58
2023/04/10 01:03:52;;;;;;;;;;;;;;;6.59;92.35;100635.69;5051591;28;19933;-58
2023/04/10 01:06:25;;;;;;;;;;;;;;;6.60;91.79;100643.63;5064912;28;20008;-58
2023/04/10 01:08:59;;;;;;;;;;;;;;;6.64;91.90;100652.38;5070949;28;19925;-58
2023/04/10 01:11:27;;;;;;;;;;;;;;;6.69;92.15;100653.22;5062906;28;19943;-58
2023/04/10 01:14:15;;;;;;;;;;;;;;;6.67;92.81;100650.59;5050477;28;19936;-59
2023/04/10 01:16:45;;;;;;;;;;;;;;;6.66;92.47;100653.25;5037655;28;19940;-58
2023/04/10 01:19:33;;;;;;;;;;;;;;;6.63;92.85;100648.88;5064240;28;19947;-59
2023/04/10 01:22:01;;;;;;;;;;;;;;;6.62;93.18;100651.53;5057376;28;19934;-58
2023/04/10 01:24:45;;;;;;;;;;;;;;;6.63;93.17;100650.63;5071134;28;19934;-58
2023/04/10 01:27:13;;;;;;;;;;;;;;;6.64;92.85;100650.63;5066878;28;19937;-58
2023/04/10 01:29:41;;;;;;;;;;;;;;;6.58;92.66;100649.78;5031248;28;19963;-58
2023/04/10 01:32:11;;;;;;;;;;;;;;;6.53;92.85;100646.31;5061337;28;19939;-58
2023/04/10 01:34:42;;;;;;;;;;;;;;;6.49;93.09;100647.22;5067273;28;19946;-58
2023/04/10 01:37:11;;;;;;;;;;;;;;;6.45;93.65;100649.00;5065858;28;20276;-58
2023/04/10 01:39:38;;;;;;;;;;;;;;;6.47;93.61;100647.19;5068760;28;19924;-58
2023/04/10 01:42:05;;;;;;;;;;;;;;;6.42;93.75;100649.03;5068514;28;20003;-59
2023/04/10 01:44:31;;;;;;;;;;;;;;;6.45;93.68;100658.69;5065598;28;19940;-58
2023/04/10 01:46:57;;;;;;;;;;;;;;;6.45;93.83;100654.28;5068802;28;19927;-59
2023/04/10 01:49:24;;;;;;;;;;;;;;;6.39;93.26;100650.81;5064749;28;20037;-59
2023/04/10 01:51:50;;;;;;;;;;;;;;;6.35;93.57;100641.13;5068295;28;19941;-58
2023/04/10 01:54:16;;;;;;;;;;;;;;;6.33;93.14;100642.88;5069833;28;20067;-58
2023/04/10 01:56:41;;;;;;;;;;;;;;;6.29;93.64;100646.44;5058103;28;20044;-58
2023/04/10 01:59:06;;;;;;;;;;;;;;;6.31;93.78;100644.69;5038196;28;19938;-59
2023/04/10 02:01:32;;;;;;;;;;;;;;;6.31;94.16;100639.41;5050135;28;20030;-59
2023/04/10 02:03:57;;;;;;;;;;;;;;;6.30;94.14;100635.00;5046528;28;19931;-58
2023/04/10 02:06:32;;;;;;;;;;;;;;;6.31;93.58;100629.69;5048861;28;19981;-58
2023/04/10 02:09:15;;;;;;;;;;;;;;;6.30;93.61;100627.94;5049473;28;20029;-59
2023/04/10 02:11:43;;;;;;;;;;;;;;;6.30;94.34;100624.41;5048076;28;19980;-58
2023/04/10 02:14:10;;;;;;;;;;;;;;;6.31;94.30;100628.84;5047550;28;19956;-58
2023/04/10 02:16:37;;;;;;;;;;;;;;;6.38;93.64;100622.59;5049824;28;19940;-58
2023/04/10 02:19:03;;;;;;;;;;;;;;;6.40;94.15;100628.75;5046992;28;20647;-58
2023/04/10 02:21:28;;;;;;;;;;;;;;;6.35;93.81;100630.56;5049663;28;19984;-59
2023/04/10 02:23:56;;;;;;;;;;;;;;;6.38;93.68;100631.41;5049378;28;19960;-58
2023/04/10 02:26:21;;;;;;;;;;;;;;;6.35;94.42;100636.72;5033508;28;19938;-58
2023/04/10 02:28:46;;;;;;;;;;;;;;;6.34;94.28;100639.38;5030440;28;20069;-58
2023/04/10 02:31:11;;;;;;;;;;;;;;;6.37;93.46;100634.06;5049909;28;20001;-58
2023/04/10 02:33:37;;;;;;;;;;;;;;;6.34;94.26;100634.09;5047776;28;19929;-58
2023/04/10 02:36:02;;;;;;;;;;;;;;;6.31;93.51;100628.84;5033833;28;19933;-58
2023/04/10 02:38:27;;;;;;;;;;;;;;;6.31;93.74;100631.47;5029765;28;20356;-58
2023/04/10 02:40:53;;;;;;;;;;;;;;;6.28;94.51;100628.81;5029901;28;19974;-58
2023/04/10 02:43:18;;;;;;;;;;;;;;;6.24;94.49;100629.75;5029546;28;19934;-58
2023/04/10 02:45:43;;;;;;;;;;;;;;;6.22;94.58;100626.22;5038098;28;19978;-58
2023/04/10 02:48:09;;;;;;;;;;;;;;;6.23;94.06;100618.28;5049205;28;20295;-58
2023/04/10 02:50:35;;;;;;;;;;;;;;;6.22;94.48;100616.56;5049144;28;20420;-57
2023/04/10 02:53:00;;;;;;;;;;;;;;;6.22;94.59;100624.47;5046175;28;19931;-58
2023/04/10 02:55:31;;;;;;;;;;;;;;;6.27;93.65;100609.47;5049730;28;19930;-58
2023/04/10 02:57:57;;;;;;;;;;;;;;;6.27;94.05;100611.25;5041536;28;19947;-57
2023/04/10 03:00:22;;;;;;;;;;;;;;;6.25;93.87;100610.38;5049226;28;20310;-58
2023/04/10 03:02:47;;;;;;;;;;;;;;;6.23;93.80;100606.84;5049270;28;19973;-57
2023/04/10 03:05:13;;;;;;;;;;;;;;;6.23;94.35;100604.19;5049388;28;19957;-58
2023/04/10 03:07:38;;;;;;;;;;;;;;;6.24;94.19;100605.97;5045415;28;19933;-58
2023/04/10 03:10:03;;;;;;;;;;;;;;;6.24;93.78;100598.06;5049250;28;20709;-57
2023/04/10 03:12:28;;;;;;;;;;;;;;;6.23;93.89;100593.63;5047035;28;19941;-57
2023/04/10 03:14:54;;;;;;;;;;;;;;;6.24;94.35;100590.97;5049245;28;20450;-58
2023/04/10 03:17:19;;;;;;;;;;;;;;;6.30;94.22;100592.72;5049047;28;20026;-58
2023/04/10 03:19:45;;;;;;;;;;;;;;;6.34;93.95;100587.41;5037885;28;19948;-57
2023/04/10 03:22:10;;;;;;;;;;;;;;;6.32;93.60;100589.19;5029258;28;19936;-58
2023/04/10 03:24:37;;;;;;;;;;;;;;;6.36;93.79;100575.06;5036047;28;19927;-58
2023/04/10 03:27:02;;;;;;;;;;;;;;;6.35;94.21;100572.44;5047456;28;19963;-58
2023/04/10 03:29:27;;;;;;;;;;;;;;;6.35;93.77;100568.03;5039887;28;19972;-58
2023/04/10 03:31:52;;;;;;;;;;;;;;;6.38;93.97;100567.13;5048854;28;20446;-57
2023/04/10 03:34:18;;;;;;;;;;;;;;;6.31;94.49;100561.00;5039031;28;19936;-58
2023/04/10 03:36:43;;;;;;;;;;;;;;;6.33;94.21;100563.63;5040061;28;19968;-57
2023/04/10 03:39:08;;;;;;;;;;;;;;;6.32;93.93;100564.53;5052917;28;19934;-58
2023/04/10 03:41:33;;;;;;;;;;;;;;;6.28;94.36;100562.78;5053110;28;19933;-57
2023/04/10 03:44:02;;;;;;;;;;;;;;;6.25;94.07;100562.81;5039175;28;20450;-58
2023/04/10 03:46:27;;;;;;;;;;;;;;;6.22;94.13;100565.47;5032934;28;19962;-58
2023/04/10 03:48:52;;;;;;;;;;;;;;;6.17;94.11;100557.59;5031392;28;20410;-57
2023/04/10 03:51:18;;;;;;;;;;;;;;;6.15;93.84;100558.47;5032867;28;19926;-59
2023/04/10 03:53:43;;;;;;;;;;;;;;;6.12;94.21;100558.50;5050937;28;19938;-58
2023/04/10 03:56:08;;;;;;;;;;;;;;;6.14;93.26;100559.38;5057736;28;19964;-58
2023/04/10 03:58:34;;;;;;;;;;;;;;;6.09;93.86;100558.53;5072609;28;19954;-57
2023/04/10 04:00:59;;;;;;;;;;;;;;;6.04;93.97;100555.91;5070191;28;19960;-58
2023/04/10 04:03:24;;;;;;;;;;;;;;;6.06;93.37;100554.13;5058434;28;19941;-58
2023/04/10 04:05:51;;;;;;;;;;;;;;;6.02;94.15;100557.69;5072746;28;19955;-58
2023/04/10 04:08:16;;;;;;;;;;;;;;;5.99;93.52;100548.91;5072909;28;20016;-58
2023/04/10 04:10:41;;;;;;;;;;;;;;;5.97;93.91;100559.47;5066986;28;20044;-58
2023/04/10 04:13:06;;;;;;;;;;;;;;;5.96;93.39;100552.44;5052573;28;19933;-58
2023/04/10 04:15:32;;;;;;;;;;;;;;;5.90;94.18;100555.09;5053837;28;19949;-58
2023/04/10 04:17:57;;;;;;;;;;;;;;;5.89;93.92;100556.00;5064295;28;19935;-58
2023/04/10 04:20:22;;;;;;;;;;;;;;;5.83;93.72;100549.88;5072453;28;19943;-57
2023/04/10 04:22:47;;;;;;;;;;;;;;;5.79;94.03;100548.09;5068128;28;20313;-58
2023/04/10 04:25:13;;;;;;;;;;;;;;;5.82;93.54;100548.06;5072053;28;19930;-58
2023/04/10 04:27:38;;;;;;;;;;;;;;;5.82;93.79;100543.72;5071786;28;20306;-58
2023/04/10 04:30:04;;;;;;;;;;;;;;;5.80;93.79;100549.88;5070142;28;19952;-58
2023/04/10 04:32:30;;;;;;;;;;;;;;;5.77;94.11;100557.78;5054593;28;19935;-58
2023/04/10 04:34:55;;;;;;;;;;;;;;;5.75;94.38;100541.94;5052305;28;19936;-58
2023/04/10 04:37:20;;;;;;;;;;;;;;;5.77;94.01;100555.13;5062057;28;20420;-58
2023/04/10 04:39:45;;;;;;;;;;;;;;;5.72;94.34;100562.19;5050499;28;19983;-58
2023/04/10 04:42:11;;;;;;;;;;;;;;;5.69;94.66;100567.50;5050948;28;20404;-58
2023/04/10 04:44:36;;;;;;;;;;;;;;;5.70;94.81;100571.91;5068437;28;19978;-58
2023/04/10 04:47:01;;;;;;;;;;;;;;;5.77;95.05;100573.59;5070738;28;19932;-58
2023/04/10 04:49:27;;;;;;;;;;;;;;;5.80;95.65;100576.25;5063039;28;19955;-58
2023/04/10 04:51:52;;;;;;;;;;;;;;;5.78;95.30;100567.47;5049971;28;20486;-58
2023/04/10 04:54:17;;;;;;;;;;;;;;;5.75;94.96;100570.13;5048277;28;19933;-58
2023/04/10 04:56:42;;;;;;;;;;;;;;;5.73;95.12;100580.69;5052211;28;20342;-58
2023/04/10 04:59:08;;;;;;;;;;;;;;;5.74;94.92;100578.91;5051486;28;20012;-59
2023/04/10 05:01:33;;;;;;;;;;;;;;;5.73;95.37;100578.06;5054299;28;20301;-58
2023/04/10 05:03:58;;;;;;;;;;;;;;;5.73;95.49;100590.34;5053859;28;19937;-58
2023/04/10 05:06:25;;;;;;;;;;;;;;;5.74;95.31;100581.53;5071074;28;19954;-58
2023/04/10 05:08:51;;;;;;;;;;;;;;;5.75;95.51;100583.31;5071457;28;19931;-58
2023/04/10 05:11:16;;;;;;;;;;;;;;;5.74;94.96;100587.72;5040529;28;19940;-58
2023/04/10 05:13:42;;;;;;;;;;;;;;;5.80;95.54;100586.81;5051399;28;19939;-58
2023/04/10 05:16:07;;;;;;;;;;;;;;;5.85;95.50;100585.06;5056201;28;20399;-58
2023/04/10 05:18:33;;;;;;;;;;;;;;;5.86;94.81;100584.16;5071141;28;19972;-58
2023/04/10 05:20:58;;;;;;;;;;;;;;;5.88;94.88;100587.69;5071181;28;19930;-58
2023/04/10 05:23:24;;;;;;;;;;;;;;;5.94;94.65;100582.38;5054540;28;19937;-58
2023/04/10 05:25:49;;;;;;;;;;;;;;;6.00;95.13;100575.28;5051362;28;19933;-58
2023/04/10 05:28:14;;;;;;;;;;;;;;;6.11;94.87;100576.09;5051174;28;19932;-58
2023/04/10 05:30:40;;;;;;;;;;;;;;;6.28;95.49;100581.28;5064459;28;19956;-58
2023/04/10 05:33:05;;;;;;;;;;;;;;;6.43;94.59;100570.63;5068840;28;19982;-58
2023/04/10 05:35:30;;;;;;;;;;;;;;;6.62;95.27;100572.25;5070815;28;19981;-58
2023/04/10 05:37:55;;;;;;;;;;;;;;;6.80;94.64;100576.50;5057456;28;19940;-59
2023/04/10 05:40:21;;;;;;;;;;;;;;;6.91;93.23;100578.16;5050491;28;20393;-58
2023/04/10 05:42:46;;;;;;;;;;;;;;;7.05;93.05;100589.47;5050681;28;19935;-58
2023/04/10 05:45:13;;;;;;;;;;;;;;;7.17;92.32;100591.13;5050602;28;19926;-58
2023/04/10 05:47:39;;;;;;;;;;;;;;;7.31;92.00;100597.16;5053763;28;20382;-58
2023/04/10 05:50:04;;;;;;;;;;;;;;;7.38;91.17;100591.78;5050461;28;19959;-58
2023/04/10 05:52:30;;;;;;;;;;;;;;;7.49;91.45;100589.91;5052821;28;19979;-59
2023/04/10 05:54:55;;;;;;;;;;;;;;;7.72;90.56;100590.53;5050462;28;20454;-58
2023/04/10 05:57:20;;;;;;;;;;;;;;;7.92;89.33;100601.72;5050866;28;19972;-58
2023/04/10 05:59:45;;;;;;;;;;;;;;;8.17;89.60;100596.13;5051683;28;20403;-59
2023/04/10 06:02:11;;;;;;;;;;;;;;;8.38;88.29;100593.22;5055922;28;19938;-58
2023/04/10 06:04:36;;;;;;;;;;;;;;;8.68;88.36;100592.75;5064021;28;20434;-59
2023/04/10 06:07:01;;;;;;;;;;;;;;;9.16;86.45;100590.13;5069945;28;19937;-59
2023/04/10 06:09:26;;;;;;;;;;;;;;;9.97;83.15;100582.34;5069442;28;20419;-59
2023/04/10 06:11:52;;;;;;;;;;;;;;;10.95;78.16;100589.84;5068898;28;20395;-59
2023/04/10 06:14:20;;;;;;;;;;;;;;;11.73;73.46;100572.66;5054953;28;19937;-58
2023/04/10 06:16:45;;;;;;;;;;;;;;;12.25;70.40;100581.78;5049240;28;19974;-58
2023/04/10 06:19:11;;;;;;;;;;;;;;;12.86;66.03;100585.16;5051290;28;20365;-58
2023/04/10 06:21:36;;;;;;;;;;;;;;;13.51;61.69;100582.06;5031033;28;20345;-58
2023/04/10 06:24:01;;;;;;;;;;;;;;;13.98;59.45;100579.41;5048793;28;19973;-58
2023/04/10 06:26:27;;;;;;;;;;;;;;;14.88;55.44;100582.97;5051505;28;20308;-59
2023/04/10 06:28:52;;;;;;;;;;;;;;;15.82;51.81;100583.34;5049692;28;20706;-59
2023/04/10 06:31:18;;;;;;;;;;;;;;;16.55;49.64;100583.53;5058348;28;19938;-58
2023/04/10 06:33:44;;;;;;;;;;;;;;;17.17;46.90;100584.94;5055087;28;19932;-59
2023/04/10 06:36:09;;;;;;;;;;;;;;;17.77;45.50;100593.47;5055904;28;19956;-59
2023/04/10 06:38:36;;;;;;;;;;;;;;;18.50;44.05;100586.81;5069771;28;19930;-59
2023/04/10 06:41:02;;;;;;;;;;;;;;;18.86;42.78;100573.94;5069342;28;19984;-59
2023/04/10 06:43:28;;;;;;;;;;;;;;;19.67;41.93;100565.50;5064101;28;19934;-57
2023/04/10 06:45:53;;;;;;;;;;;;;;;20.04;40.29;100570.34;5062155;28;19941;-59
2023/04/10 06:48:18;;;;;;;;;;;;;;;19.58;40.89;100572.31;5049815;28;19967;-59
2023/04/10 06:50:43;;;;;;;;;;;;;;;20.00;41.22;100572.38;5049589;28;19951;-59
2023/04/10 06:53:09;;;;;;;;;;;;;;;20.11;41.33;100574.41;5034648;28;20262;-59
2023/04/10 06:55:36;;;;;;;;;;;;;;;19.85;40.43;100570.63;5049655;28;19940;-59
2023/04/10 06:58:01;;;;;;;;;;;;;;;19.01;42.24;100570.34;5048429;28;19935;-59
2023/04/10 07:00:26;;;;;;;;;;;;;;;19.41;41.59;100559.84;5049728;28;20020;-59
2023/04/10 07:02:52;;;;;;;;;;;;;;;19.55;41.52;100567.13;5046045;28;19945;-59
2023/04/10 07:05:17;;;;;;;;;;;;;;;19.86;40.23;100558.88;5049534;28;19952;-59
2023/04/10 07:07:43;;;;;;;;;;;;;;;20.05;40.48;100564.84;5038789;28;19946;-59
2023/04/10 07:10:08;;;;;;;;;;;;;;;19.60;41.06;100570.41;5029185;28;19981;-59
2023/04/10 07:12:33;;;;;;;;;;;;;;;19.30;42.01;100569.53;5034263;28;19932;-59
2023/04/10 07:14:59;;;;;;;;;;;;;;;19.07;42.88;100567.28;5032549;28;19932;-59
2023/04/10 07:17:24;;;;;;;;;;;;;;;19.09;43.17;100568.06;5032279;28;20013;-59
2023/04/10 07:19:49;;;;;;;;;;;;;;;19.29;42.93;100570.50;5034836;28;19945;-59
2023/04/10 07:22:15;;;;;;;;;;;;;;;19.34;43.01;100560.31;5032968;28;20342;-59
2023/04/10 07:24:40;;;;;;;;;;;;;;;18.87;42.91;100567.56;5044675;28;19940;-59
2023/04/10 07:27:06;;;;;;;;;;;;;;;18.77;43.99;100566.38;5032863;28;20015;-59
2023/04/10 07:29:31;;;;;;;;;;;;;;;18.46;44.17;100572.63;5035307;28;20008;-59
2023/04/10 07:31:56;;;;;;;;;;;;;;;18.10;42.85;100569.25;5049373;28;19937;-59
2023/04/10 07:34:22;;;;;;;;;;;;;;;18.37;42.95;100565.00;5052672;28;19940;-58
2023/04/10 07:36:48;;;;;;;;;;;;;;;18.47;42.38;100568.13;5047400;28;19971;-58
2023/04/10 07:39:13;;;;;;;;;;;;;;;18.68;42.40;100569.59;5052346;28;19970;-58
2023/04/10 07:41:39;;;;;;;;;;;;;;;18.61;42.49;100565.50;5051891;28;19927;-58
2023/04/10 07:44:04;;;;;;;;;;;;;;;18.78;43.23;100568.97;5050037;28;19933;-58
2023/04/10 07:46:29;;;;;;;;;;;;;;;19.02;44.33;100566.69;5032747;28;20415;-58
2023/04/10 07:48:55;;;;;;;;;;;;;;;19.18;42.86;100562.13;5030631;28;20044;-58
2023/04/10 07:51:21;;;;;;;;;;;;;;;19.09;42.00;100562.69;5033598;28;20006;-58
2023/04/10 07:53:46;;;;;;;;;;;;;;;18.82;41.14;100570.53;5031381;28;19979;-59
2023/04/10 07:56:16;;;;;;;;;;;;;;;19.16;41.67;100555.97;5038999;28;19969;-58
2023/04/10 07:58:41;;;;;;;;;;;;;;;19.21;42.06;100551.16;5052139;28;19975;-58
2023/04/10 08:01:06;;;;;;;;;;;;;;;18.64;41.35;100563.50;5053754;28;19983;-59
2023/04/10 08:03:36;;;;;;;;;;;;;;;18.82;41.25;100559.75;5065203;28;19934;-58
2023/04/10 08:06:01;;;;;;;;;;;;;;;19.10;41.63;100559.00;5066938;28;19944;-58
2023/04/10 08:08:27;;;;;;;;;;;;;;;19.11;42.17;100552.69;5056541;28;19943;-58
2023/04/10 08:10:52;;;;;;;;;;;;;;;19.32;41.42;100554.97;5061686;28;19954;-58
2023/04/10 08:13:17;;;;;;;;;;;;;;;19.67;41.20;100554.69;5069966;28;19935;-59
2023/04/10 08:15:43;;;;;;;;;;;;;;;20.31;40.55;100553.28;5053251;28;19952;-58
2023/04/10 08:18:08;;;;;;;;;;;;;;;19.98;41.85;100558.13;5050919;28;19936;-58
2023/04/10 08:20:35;;;;;;;;;;;;;;;19.81;40.98;100560.97;5066673;28;20477;-59
2023/04/10 08:23:01;;;;;;;;;;;;;;;19.74;41.22;100556.91;5066982;28;19933;-58
2023/04/10 08:25:26;;;;;;;;;;;;;;;19.81;41.40;100563.69;5050534;28;19930;-58
2023/04/10 08:27:51;;;;;;;;;;;;;;;19.93;40.04;100562.94;5050747;28;19946;-58
2023/04/10 08:30:16;;;;;;;;;;;;;;;20.05;40.00;100558.59;5053461;28;19954;-58
2023/04/10 08:32:42;;;;;;;;;;;;;;;20.21;40.32;100567.50;5070553;28;20010;-58
2023/04/10 08:35:07;;;;;;;;;;;;;;;20.35;39.60;100567.47;5069069;28;19939;-59
2023/04/10 08:37:32;;;;;;;;;;;;;;;20.22;39.27;100559.28;5049772;28;19934;-59
2023/04/10 08:39:58;;;;;;;;;;;;;;;20.22;39.76;100559.28;5071562;28;19935;-59
2023/04/10 08:42:24;;;;;;;;;;;;;;;20.55;39.22;100556.25;5070946;28;20032;-58
2023/04/10 08:44:49;;;;;;;;;;;;;;;20.86;39.22;100556.84;5061484;28;19931;-58
2023/04/10 08:47:18;;;;;;;;;;;;;;;21.13;38.67;100554.19;5069388;28;19942;-58
2023/04/10 08:49:47;;;;;;;;;;;;;;;21.46;39.54;100553.72;5070099;28;19952;-58
2023/04/10 08:52:19;;;;;;;;;;;;;;;21.81;37.62;100547.63;5058837;28;20042;-58
2023/04/10 08:54:47;;;;;;;;;;;;;;;22.25;38.61;100535.47;5050119;28;19928;-59
2023/04/10 08:57:17;;;;;;;;;;;;;;;22.63;36.58;100548.00;5047705;28;19963;-58
2023/04/10 08:59:42;;;;;;;;;;;;;;;23.03;37.04;100535.91;5031831;28;19928;-58
2023/04/10 09:02:08;;;;;;;;;;;;;;;23.33;37.52;100539.03;5030334;28;19961;-60
2023/04/10 09:04:33;;;;;;;;;;;;;;;23.47;34.34;100528.94;5042862;28;20043;-60
2023/04/10 09:06:59;;;;;;;;;;;;;;;23.00;34.13;100530.69;5050316;28;19934;-58
2023/04/10 09:09:26;;;;;;;;;;;;;;;22.90;36.43;100520.69;5048230;28;19957;-58
2023/04/10 09:11:51;;;;;;;;;;;;;;;23.43;36.63;100518.34;5049423;28;19943;-59
2023/04/10 09:14:20;;;;;;;;;;;;;;;23.70;34.04;100519.88;5050737;28;19927;-58
2023/04/10 09:16:46;;;;;;;;;;;;;;;23.25;34.80;100518.84;5050825;28;19965;-59
2023/04/10 09:19:11;;;;;;;;;;;;;;;23.37;36.79;100509.78;5044592;28;20019;-58
2023/04/10 09:21:36;;;;;;;;;;;;;;;23.37;34.85;100507.09;5029948;28;20015;-59
2023/04/10 09:24:02;;;;;;;;;;;;;;;23.54;35.47;100503.06;5049857;28;19924;-59
2023/04/10 09:26:27;;;;;;;;;;;;;;;23.66;34.96;100507.53;5032809;28;20442;-59
2023/04/10 09:29:00;;;;;;;;;;;;;;;23.41;35.14;100503.13;5047854;28;20102;-59
2023/04/10 09:31:27;;;;;;;;;;;;;;;23.62;36.09;100506.91;5049876;28;20349;-59
2023/04/10 09:34:05;;;;;;;;;;;;;;;23.37;36.33;100496.22;5038269;28;19929;-59
2023/04/10 09:36:30;;;;;;;;;;;;;;;23.44;37.70;100494.78;5048758;28;19933;-58
2023/04/10 09:38:56;;;;;;;;;;;;;;;23.44;35.00;100492.91;5046854;28;20313;-59
2023/04/10 09:41:21;;;;;;;;;;;;;;;23.59;35.01;100489.97;5049749;28;19944;-59
2023/04/10 09:43:46;;;;;;;;;;;;;;;23.57;31.75;100491.94;5047056;28;19938;-59
2023/04/10 09:46:25;;;;;;;;;;;;;;;23.45;31.39;100485.63;5031992;28;19932;-59
2023/04/10 09:48:54;;;;;;;;;;;;;;;23.82;33.20;100480.88;5030787;28;19931;-59
2023/04/10 09:51:29;;;;;;;;;;;;;;;23.84;32.98;100471.59;5045481;28;19931;-59
2023/04/10 09:53:54;;;;;;;;;;;;;;;24.36;31.28;100477.31;5044121;28;19935;-59
2023/04/10 09:56:28;;;;;;;;;;;;;;;24.17;29.71;100470.75;5094559;27;20729;-58
2023/04/10 09:58:58;;;;;;;;;;;;;;;23.97;29.26;100466.06;5084961;28;20017;-58
2023/04/10 10:01:27;;;;;;;;;;;;;;;24.04;29.94;100453.72;5080724;28;19917;-59
2023/04/10 10:04:00;;;;;;;;;;;;;;;24.18;30.20;100453.47;5074310;28;19972;-59
2023/04/10 10:06:26;;;;;;;;;;;;;;;24.95;29.20;100452.44;5078533;28;19946;-59
2023/04/10 10:08:51;;;;;;;;;;;;;;;25.06;28.09;100455.97;5081707;28;19923;-58
2023/04/10 10:11:19;;;;;;;;;;;;;;;25.32;28.77;100446.41;5062417;28;19933;-59
2023/04/10 10:13:51;;;;;;;;;;;;;;;25.41;28.51;100439.34;5065868;28;20036;-58
2023/04/10 10:16:19;;;;;;;;;;;;;;;25.43;28.15;100442.81;5083502;28;20062;-58
2023/04/10 10:19:05;;;;;;;;;;;;;;;25.31;28.71;100443.84;5084599;28;20047;-58
2023/04/10 10:21:32;;;;;;;;;;;;;;;25.69;29.04;100436.81;5078960;28;20073;-58
2023/04/10 10:23:59;;;;;;;;;;;;;;;25.49;27.31;100434.97;5065790;28;19933;-58
2023/04/10 10:26:25;;;;;;;;;;;;;;;25.66;28.21;100428.91;5072843;28;19935;-58
2023/04/10 10:28:54;;;;;;;;;;;;;;;25.80;29.36;100425.81;5086079;28;19951;-58
2023/04/10 10:31:21;;;;;;;;;;;;;;;26.13;28.78;100427.41;5084539;28;20130;-58
2023/04/10 10:33:46;;;;;;;;;;;;;;;26.14;30.13;100420.09;5084016;28;19932;-58
2023/04/10 10:36:13;;;;;;;;;;;;;;;26.14;30.50;100411.91;5083864;28;19962;-58
2023/04/10 10:38:40;;;;;;;;;;;;;;;26.13;29.71;100404.75;5081393;28;20393;-58
2023/04/10 10:41:22;;;;;;;;;;;;;;;25.62;29.57;100408.38;5076173;28;19933;-58
2023/04/10 10:43:47;;;;;;;;;;;;;;;25.40;30.65;100405.78;5071572;28;19995;-58
2023/04/10 10:46:17;;;;;;;;;;;;;;;25.90;28.99;100402.19;5074183;28;20355;-58
2023/04/10 10:48:59;;;;;;;;;;;;;;;26.08;29.48;100393.41;5074604;28;19931;-58
2023/04/10 10:51:41;;;;;;;;;;;;;;;26.10;28.58;100396.81;5073835;28;19933;-58
2023/04/10 10:54:25;;;;;;;;;;;;;;;25.67;29.53;100395.19;5072780;28;20446;-58
2023/04/10 10:56:50;;;;;;;;;;;;;;;25.59;29.61;100395.03;5067172;28;19939;-58
2023/04/10 10:59:15;;;;;;;;;;;;;;;25.57;31.29;100390.69;5065255;28;19948;-58
2023/04/10 11:02:01;;;;;;;;;;;;;;;24.96;29.25;100394.28;5082864;28;19927;-59
2023/04/10 11:04:43;;;;;;;;;;;;;;;24.60;30.29;100376.47;5082470;28;19942;-58
2023/04/10 11:07:09;;;;;;;;;;;;;;;24.27;31.13;100390.19;5063131;28;19953;-58
2023/04/10 11:09:47;;;;;;;;;;;;;;;24.03;29.81;100381.34;5069143;28;19934;-58
2023/04/10 11:12:13;;;;;;;;;;;;;;;24.40;30.09;100383.59;5068124;28;20533;-58
2023/04/10 11:14:39;;;;;;;;;;;;;;;24.78;30.42;100369.50;5067181;28;19916;-59
2023/04/10 11:17:04;;;;;;;;;;;;;;;25.14;29.28;100366.31;5063816;28;20096;-59
2023/04/10 11:19:49;;;;;;;;;;;;;;;25.46;29.77;100366.25;5057302;28;20022;-59
2023/04/10 11:22:15;;;;;;;;;;;;;;;26.03;28.33;100360.22;5068310;28;20501;-58
2023/04/10 11:24:53;;;;;;;;;;;;;;;25.65;28.91;100360.91;5056426;28;19942;-58
2023/04/10 11:27:40;;;;;;;;;;;;;;;25.18;30.36;100351.47;5055425;28;20414;-58
2023/04/10 11:30:26;;;;;;;;;;;;;;;25.53;30.98;100359.28;5055266;28;19939;-59
2023/04/10 11:32:52;;;;;;;;;;;;;;;25.56;29.76;100359.88;5057901;28;19933;-59
2023/04/10 11:35:18;;;;;;;;;;;;;;;25.78;28.53;100361.53;5064580;28;20294;-59
2023/04/10 11:37:44;;;;;;;;;;;;;;;25.90;30.31;100353.13;5068380;28;19946;-59
2023/04/10 11:40:09;;;;;;;;;;;;;;;25.63;31.18;100352.84;5067378;28;19928;-59
2023/04/10 11:42:34;;;;;;;;;;;;;;;26.00;31.23;100338.66;5056221;28;19940;-59
2023/04/10 11:45:20;;;;;;;;;;;;;;;26.51;29.57;100333.84;5063261;28;19926;-59
2023/04/10 11:47:54;;;;;;;;;;;;;;;26.58;29.00;100329.56;5063133;28;19937;-59
2023/04/10 11:50:20;;;;;;;;;;;;;;;26.66;29.35;100337.91;5064168;28;19936;-59
2023/04/10 11:52:48;;;;;;;;;;;;;;;26.31;30.16;100326.69;5059854;28;19934;-60
2023/04/10 11:55:13;;;;;;;;;;;;;;;26.35;28.87;100312.63;5067639;28;19957;-58
2023/04/10 11:57:38;;;;;;;;;;;;;;;25.89;31.41;100313.25;5069837;28;19950;-57
2023/04/10 12:00:04;;;;;;;;;;;;;;;26.07;29.24;100308.00;5066446;28;19935;-58
2023/04/10 12:02:29;;;;;;;;;;;;;;;25.86;29.36;100305.31;5069646;28;20663;-58
2023/04/10 12:04:57;;;;;;;;;;;;;;;25.88;28.01;100303.31;5068553;28;20019;-58
2023/04/10 12:07:23;;;;;;;;;;;;;;;25.86;29.46;100293.56;5058438;28;20033;-58
2023/04/10 12:09:58;;;;;;;;;;;;;;;25.80;30.03;100289.53;5050511;28;20008;-58
2023/04/10 12:12:36;;;;;;;;;;;;;;;25.90;29.45;100295.88;5064739;28;19938;-58
2023/04/10 12:15:01;;;;;;;;;;;;;;;25.57;28.56;100279.84;5067203;28;19956;-58
2023/04/10 12:17:27;;;;;;;;;;;;;;;25.13;28.66;100277.47;5056461;28;20285;-58
2023/04/10 12:19:52;;;;;;;;;;;;;;;25.63;31.19;100282.00;5060163;28;19937;-58
2023/04/10 12:22:17;;;;;;;;;;;;;;;26.11;30.44;100281.31;5067381;28;19940;-58
2023/04/10 12:24:47;;;;;;;;;;;;;;;26.40;30.13;100277.59;5066876;28;19934;-58
2023/04/10 12:27:18;;;;;;;;;;;;;;;26.12;29.22;100272.09;5067694;28;19953;-58
2023/04/10 12:29:44;;;;;;;;;;;;;;;26.08;28.78;100281.59;5056547;28;19938;-59
2023/04/10 12:32:10;;;;;;;;;;;;;;;26.13;30.43;100284.75;5048274;28;19940;-58
2023/04/10 12:34:35;;;;;;;;;;;;;;;26.55;31.29;100286.19;5051301;28;20023;-58
2023/04/10 12:37:01;;;;;;;;;;;;;;;26.75;30.51;100283.34;5060434;28;19949;-58
2023/04/10 12:39:27;;;;;;;;;;;;;;;26.66;29.07;100267.84;5065508;28;19948;-58